Time;durP1;ratioP1;P1;durP2;ratioP2;P2;SDS_P1;SDS_P2;PMS_P1;PMS_P2;Temp;Humidity;BMP_temperature;BMP_pressure;BME280_temperature;BME280_humidity;BME280_pressure;Samples;Min_cycle;Max_cycle;Signal;HPM_P1;HPM_P2
2022/05/01 00:01:10;;;;;;;12.98;9.85;;;8.60;99.90;;;;;;5034562;28;20237;-79
2022/05/01 00:03:36;;;;;;;12.50;10.45;;;8.60;99.90;;;;;;5034555;28;20164;-78
2022/05/01 00:06:05;;;;;;;14.98;11.77;;;8.70;99.90;;;;;;5034128;28;20188;-80
2022/05/01 00:08:31;;;;;;;11.30;10.18;;;8.90;99.90;;;;;;5034945;28;20172;-78
2022/05/01 00:10:57;;;;;;;15.20;10.40;;;8.90;99.90;;;;;;5034138;28;20641;-80
2022/05/01 00:13:24;;;;;;;15.02;11.02;;;9.10;99.90;;;;;;5034136;28;20172;-80
2022/05/01 00:15:50;;;;;;;15.52;10.38;;;9.20;99.90;;;;;;5034370;28;20191;-82
2022/05/01 00:18:16;;;;;;;13.13;10.27;;;9.30;99.90;;;;;;5033405;28;20198;-77
2022/05/01 00:20:43;;;;;;;16.88;11.00;;;9.30;99.90;;;;;;5033752;28;20709;-78
2022/05/01 00:23:09;;;;;;;16.52;12.35;;;9.30;99.90;;;;;;5033894;28;20168;-79
2022/05/01 00:25:35;;;;;;;13.18;9.98;;;9.30;99.90;;;;;;5033864;28;20762;-77
2022/05/01 00:28:01;;;;;;;13.35;11.18;;;9.40;99.90;;;;;;5034261;28;20680;-79
2022/05/01 00:30:27;;;;;;;14.65;11.52;;;9.10;99.90;;;;;;5033880;28;20167;-78
2022/05/01 00:38:24;;;;;;;17.17;11.00;;;8.90;99.90;;;;;;5033814;28;20535;-78
2022/05/01 00:40:50;;;;;;;15.10;12.43;;;8.90;99.90;;;;;;5033815;28;20167;-83
2022/05/01 00:43:16;;;;;;;14.27;12.18;;;9.00;99.90;;;;;;5034011;28;20263;-79
2022/05/01 00:45:42;;;;;;;18.55;14.40;;;8.90;99.90;;;;;;5033787;28;20230;-79
2022/05/01 00:48:08;;;;;;;23.75;13.73;;;9.00;99.90;;;;;;5033726;28;20204;-78
2022/05/01 00:50:35;;;;;;;16.92;13.02;;;9.30;99.90;;;;;;5033945;28;20168;-80
2022/05/01 00:53:04;;;;;;;15.70;13.13;;;9.50;99.90;;;;;;5034115;28;20160;-85
2022/05/01 00:55:33;;;;;;;20.75;14.20;;;9.20;99.90;;;;;;5033585;28;20195;-83
2022/05/01 00:58:01;;;;;;;20.45;14.35;;;9.00;99.90;;;;;;5033686;28;20171;-79
2022/05/01 01:00:27;;;;;;;14.50;12.95;;;8.80;99.90;;;;;;5033669;28;20184;-78
2022/05/01 01:02:53;;;;;;;22.98;14.63;;;8.90;99.90;;;;;;5034062;28;20643;-79
2022/05/01 01:05:19;;;;;;;23.67;15.02;;;9.20;99.90;;;;;;5034611;28;20191;-80
2022/05/01 01:07:45;;;;;;;20.73;15.07;;;9.10;99.90;;;;;;5036751;28;20249;-79
2022/05/01 01:10:11;;;;;;;27.10;15.93;;;9.00;99.90;;;;;;5050733;28;20198;-79
2022/05/01 01:12:55;;;;;;;24.08;16.33;;;9.00;99.90;;;;;;5033914;28;20255;-78
2022/05/01 01:15:28;;;;;;;23.73;15.55;;;9.10;99.90;;;;;;5033278;28;20554;-78
2022/05/01 01:17:54;;;;;;;22.67;15.07;;;8.90;99.90;;;;;;5032623;28;20175;-79
2022/05/01 01:20:21;;;;;;;29.67;16.23;;;8.90;99.90;;;;;;5033198;28;20163;-83
2022/05/01 01:22:49;;;;;;;18.98;15.02;;;9.20;99.90;;;;;;5033147;28;20648;-80
2022/05/01 01:25:24;;;;;;;30.40;17.33;;;9.10;99.90;;;;;;5033447;28;20179;-78
2022/05/01 01:27:52;;;;;;;28.80;18.30;;;9.20;99.90;;;;;;5032875;28;20663;-81
2022/05/01 01:33:03;;;;;;;24.70;16.92;;;8.80;99.90;;;;;;5032833;28;20179;-78
2022/05/01 01:35:32;;;;;;;24.65;16.05;;;8.80;99.90;;;;;;5047992;28;20191;-80
2022/05/01 01:37:58;;;;;;;24.23;16.83;;;8.70;99.90;;;;;;5032573;28;20168;-79
2022/05/01 01:40:28;;;;;;;20.45;15.48;;;8.80;99.90;;;;;;5032953;28;20166;-77
2022/05/01 01:42:55;;;;;;;23.98;15.10;;;8.90;99.90;;;;;;5033003;28;20164;-78
2022/05/01 01:45:21;;;;;;;23.63;15.82;;;8.90;99.90;;;;;;5031155;28;20230;-78
2022/05/01 01:47:50;;;;;;;21.17;15.75;;;9.00;99.90;;;;;;5032395;28;20261;-78
2022/05/01 01:50:19;;;;;;;25.67;14.88;;;8.80;99.90;;;;;;5032590;28;20213;-81
2022/05/01 01:52:46;;;;;;;29.10;14.68;;;8.70;99.90;;;;;;5032844;28;20274;-84
2022/05/01 01:55:17;;;;;;;22.58;14.35;;;8.70;99.90;;;;;;5033018;28;20306;-80
2022/05/01 01:57:45;;;;;;;23.60;14.18;;;8.80;99.90;;;;;;5032652;28;20255;-81
2022/05/01 02:00:12;;;;;;;18.75;14.25;;;9.10;99.90;;;;;;5032461;28;20184;-80
2022/05/01 02:02:37;;;;;;;18.50;13.82;;;8.90;99.90;;;;;;5032671;28;20185;-78
2022/05/01 02:05:04;;;;;;;21.20;13.98;;;8.80;99.90;;;;;;5032604;28;20192;-77
2022/05/01 02:07:30;;;;;;;20.90;14.57;;;8.80;99.90;;;;;;5032278;28;20199;-78
2022/05/01 02:09:57;;;;;;;21.25;14.50;;;8.80;99.90;;;;;;5047991;28;20166;-81
2022/05/01 02:12:22;;;;;;;24.88;15.02;;;9.00;99.90;;;;;;5032621;28;20196;-79
2022/05/01 02:14:48;;;;;;;25.98;14.55;;;9.10;99.90;;;;;;5032494;28;20196;-81
2022/05/01 02:17:14;;;;;;;23.98;15.07;;;8.80;99.90;;;;;;5032984;28;20172;-79
2022/05/01 02:19:39;;;;;;;21.17;15.07;;;8.60;99.90;;;;;;5032835;28;20306;-77
2022/05/01 02:22:05;;;;;;;20.42;15.40;;;8.40;99.90;;;;;;5032098;28;20191;-77
2022/05/01 02:24:31;;;;;;;26.98;15.20;;;8.50;99.90;;;;;;5032059;28;20187;-78
2022/05/01 02:26:57;;;;;;;23.65;15.25;;;8.20;99.90;;;;;;5031923;28;20710;-77
2022/05/01 02:29:22;;;;;;;24.50;15.00;;;7.90;99.90;;;;;;5032527;28;20168;-76
2022/05/01 02:31:55;;;;;;;22.58;15.00;;;8.00;99.90;;;;;;5032247;28;20191;-77
2022/05/01 02:34:22;;;;;;;22.42;14.68;;;7.90;99.90;;;;;;5031980;28;20543;-77
2022/05/01 02:36:51;;;;;;;23.65;14.30;;;7.90;99.90;;;;;;5032189;28;20199;-77
2022/05/01 02:39:19;;;;;;;18.70;13.68;;;8.00;99.90;;;;;;5032282;28;20187;-78
2022/05/01 02:41:46;;;;;;;27.77;15.05;;;8.10;99.90;;;;;;5050861;28;20174;-78
2022/05/01 02:44:12;;;;;;;22.05;14.50;;;8.10;99.90;;;;;;5035889;28;20230;-80
2022/05/01 02:46:38;;;;;;;20.48;14.75;;;8.10;99.90;;;;;;5034653;28;20815;-79
2022/05/01 02:49:08;;;;;;;18.40;15.20;;;8.10;99.90;;;;;;5036162;28;20230;-77
2022/05/01 02:51:36;;;;;;;19.73;15.07;;;8.00;99.90;;;;;;5051552;28;20667;-77
2022/05/01 02:54:04;;;;;;;21.13;15.32;;;8.30;99.90;;;;;;5035736;28;20167;-77
2022/05/01 02:56:30;;;;;;;21.00;14.95;;;8.00;99.90;;;;;;5035472;28;20195;-79
2022/05/01 02:58:57;;;;;;;20.95;13.75;;;7.90;99.90;;;;;;5035517;28;20160;-78
2022/05/01 03:01:23;;;;;;;19.50;14.25;;;7.70;99.90;;;;;;5051029;28;20221;-78
2022/05/01 03:03:49;;;;;;;22.17;15.82;;;7.90;99.90;;;;;;5035860;28;20638;-77
2022/05/01 03:06:14;;;;;;;22.88;15.50;;;7.60;99.90;;;;;;5035416;28;20203;-78
2022/05/01 03:08:40;;;;;;;20.02;15.00;;;7.50;99.90;;;;;;5035484;28;20270;-77
2022/05/01 03:11:06;;;;;;;27.00;15.23;;;7.50;99.90;;;;;;5035146;28;20175;-78
2022/05/01 03:13:31;;;;;;;22.98;15.85;;;7.60;99.90;;;;;;5035523;28;20163;-76
2022/05/01 03:15:57;;;;;;;19.15;15.70;;;7.80;99.90;;;;;;5035023;28;20671;-77
2022/05/01 03:23:52;;;;;;;21.02;15.68;;;7.60;99.90;;;;;;5035126;28;20179;-79
2022/05/01 03:26:18;;;;;;;24.00;15.73;;;7.90;99.90;;;;;;5035050;28;20188;-79
2022/05/01 03:28:45;;;;;;;21.60;15.82;;;7.90;99.90;;;;;;5035402;28;20176;-77
2022/05/01 03:31:12;;;;;;;18.23;14.55;;;7.80;99.90;;;;;;5034419;28;20494;-77
2022/05/01 03:33:38;;;;;;;23.95;14.40;;;7.70;99.90;;;;;;5034703;28;20168;-77
2022/05/01 03:36:06;;;;;;;23.65;15.38;;;7.70;99.90;;;;;;5034868;28;20593;-78
2022/05/01 03:38:37;;;;;;;20.27;14.90;;;7.60;99.90;;;;;;5034660;28;20589;-79
2022/05/01 03:41:05;;;;;;;19.45;15.60;;;7.30;99.90;;;;;;5034897;28;20159;-79
2022/05/01 03:43:32;;;;;;;17.50;14.23;;;7.30;99.90;;;;;;5034722;28;20178;-77
2022/05/01 03:45:58;;;;;;;22.80;14.98;;;7.30;99.90;;;;;;5034320;28;20184;-78
2022/05/01 03:48:24;;;;;;;21.48;16.35;;;7.40;99.90;;;;;;5034753;28;20200;-77
2022/05/01 03:50:54;;;;;;;22.33;15.75;;;7.60;99.90;;;;;;5034931;28;20172;-78
2022/05/01 03:53:20;;;;;;;22.42;15.50;;;7.40;99.90;;;;;;5048950;28;20651;-77
2022/05/01 03:55:47;;;;;;;24.70;15.98;;;7.60;99.90;;;;;;5034276;28;20730;-79
2022/05/01 03:58:13;;;;;;;26.00;16.08;;;7.40;99.90;;;;;;5034581;28;20179;-77
2022/05/01 04:00:39;;;;;;;26.73;15.30;;;7.40;99.90;;;;;;5050425;28;20191;-79
2022/05/01 04:03:05;;;;;;;25.90;16.10;;;7.50;99.90;;;;;;5034927;28;20164;-78
2022/05/01 04:05:32;;;;;;;21.95;15.52;;;7.40;99.90;;;;;;5035123;28;20194;-78
2022/05/01 04:07:58;;;;;;;24.17;15.18;;;7.20;99.90;;;;;;5034690;28;20210;-81
2022/05/01 04:10:24;;;;;;;22.98;15.15;;;7.30;99.90;;;;;;5034858;28;20172;-79
2022/05/01 04:12:50;;;;;;;24.63;16.85;;;7.20;99.90;;;;;;5034214;28;20194;-77
2022/05/01 04:15:16;;;;;;;29.63;15.70;;;7.20;99.90;;;;;;5034042;28;20525;-78
2022/05/01 04:17:42;;;;;;;21.90;15.85;;;7.10;99.90;;;;;;5034588;28;20250;-80
2022/05/01 04:20:15;;;;;;;25.50;15.55;;;7.10;99.90;;;;;;5034636;28;20175;-84
2022/05/01 04:22:48;;;;;;;22.90;15.00;;;7.10;99.90;;;;;;5034221;28;20168;-78
2022/05/01 04:25:26;;;;;;;28.10;15.40;;;7.40;99.90;;;;;;5034303;28;20191;-78
2022/05/01 04:27:55;;;;;;;24.52;15.88;;;7.40;99.90;;;;;;5034399;28;20216;-78
2022/05/01 04:30:22;;;;;;;31.40;16.52;;;7.40;99.90;;;;;;5049220;28;20195;-80
2022/05/01 04:32:51;;;;;;;28.17;16.30;;;7.30;99.90;;;;;;5034169;28;20595;-78
2022/05/01 04:35:30;;;;;;;24.67;16.40;;;7.40;99.90;;;;;;5035092;28;20219;-78
2022/05/01 04:38:01;;;;;;;22.90;15.57;;;7.40;99.90;;;;;;5034962;28;20226;-78
2022/05/01 04:40:28;;;;;;;25.60;15.32;;;7.30;99.90;;;;;;5033771;28;20170;-82
2022/05/01 04:43:09;;;;;;;25.75;16.50;;;7.20;99.90;;;;;;5034651;28;20167;-83
2022/05/01 04:45:37;;;;;;;28.15;16.30;;;7.30;99.90;;;;;;5049261;28;20195;-83
2022/05/01 04:48:05;;;;;;;24.67;16.58;;;7.40;99.90;;;;;;5034208;28;20203;-82
2022/05/01 04:50:31;;;;;;;24.33;16.63;;;7.40;99.90;;;;;;5033681;28;20164;-77
2022/05/01 04:52:57;;;;;;;24.42;15.75;;;7.20;99.90;;;;;;5033260;28;20234;-76
2022/05/01 04:55:24;;;;;;;21.67;15.55;;;7.40;99.90;;;;;;5033312;28;20184;-76
2022/05/01 04:57:49;;;;;;;25.50;16.00;;;7.50;99.90;;;;;;5033607;28;20175;-78
2022/05/01 05:00:19;;;;;;;26.13;16.85;;;7.50;99.90;;;;;;5033566;28;20184;-78
2022/05/01 05:02:50;;;;;;;29.55;16.05;;;7.70;99.90;;;;;;5033533;28;20172;-78
2022/05/01 05:05:17;;;;;;;24.02;16.17;;;7.80;99.90;;;;;;5048637;28;20233;-81
2022/05/01 05:07:43;;;;;;;22.08;16.45;;;7.70;99.90;;;;;;5033118;28;20207;-78
2022/05/01 05:10:10;;;;;;;21.80;16.13;;;7.80;99.90;;;;;;5033370;28;20163;-78
2022/05/01 05:12:37;;;;;;;22.73;15.35;;;7.90;99.90;;;;;;5033405;28;20214;-78
2022/05/01 05:15:07;;;;;;;29.30;16.60;;;7.90;99.90;;;;;;5033384;28;20546;-77
2022/05/01 05:17:32;;;;;;;34.15;18.30;;;7.90;99.90;;;;;;5048554;28;20164;-78
2022/05/01 05:19:59;;;;;;;27.33;16.50;;;8.00;99.90;;;;;;5032684;28;20501;-76
2022/05/01 05:22:25;;;;;;;26.63;16.17;;;8.20;99.90;;;;;;5033117;28;20199;-77
2022/05/01 05:24:51;;;;;;;26.25;16.05;;;8.20;99.90;;;;;;5032564;28;20194;-77
2022/05/01 05:27:25;;;;;;;25.88;17.67;;;8.40;99.90;;;;;;5032494;28;20207;-76
2022/05/01 05:29:55;;;;;;;25.17;17.92;;;8.50;99.90;;;;;;5032377;28;20222;-77
2022/05/01 05:32:21;;;;;;;29.30;18.48;;;8.50;99.90;;;;;;5032451;28;20167;-77
2022/05/01 05:34:48;;;;;;;25.52;16.65;;;8.60;99.90;;;;;;5032720;28;20188;-77
2022/05/01 05:37:14;;;;;;;22.75;16.33;;;8.70;99.90;;;;;;5032806;28;20618;-77
2022/05/01 05:39:40;;;;;;;26.95;16.15;;;8.80;99.90;;;;;;5032704;28;20181;-76
2022/05/01 05:42:06;;;;;;;27.50;19.02;;;8.90;99.90;;;;;;5032101;28;20171;-77
2022/05/01 05:44:32;;;;;;;27.42;18.42;;;9.10;99.90;;;;;;5047790;28;20188;-77
2022/05/01 05:46:57;;;;;;;24.67;17.13;;;9.30;99.90;;;;;;5032333;28;20604;-80
2022/05/01 05:49:23;;;;;;;21.88;15.82;;;9.40;99.90;;;;;;5033233;28;20180;-83
2022/05/01 05:51:48;;;;;;;25.13;17.00;;;9.40;99.90;;;;;;5033104;28;20628;-80
2022/05/01 05:54:14;;;;;;;19.83;15.50;;;9.40;99.90;;;;;;5032805;28;20164;-80
2022/05/01 05:56:40;;;;;;;24.90;16.58;;;9.30;99.90;;;;;;5033043;28;20164;-86
2022/05/01 05:59:05;;;;;;;23.80;17.58;;;9.40;99.90;;;;;;5033100;28;20624;-87
2022/05/01 06:01:31;;;;;;;25.17;17.52;;;9.40;99.90;;;;;;5032811;28;20637;-82
2022/05/01 06:03:57;;;;;;;33.72;18.38;;;9.50;99.90;;;;;;5032209;28;20202;-77
2022/05/01 06:06:22;;;;;;;27.35;18.88;;;9.70;99.90;;;;;;5032047;28;20195;-78
2022/05/01 06:08:48;;;;;;;29.88;18.27;;;9.90;99.90;;;;;;5032253;28;20172;-77
2022/05/01 06:11:13;;;;;;;29.42;19.55;;;9.90;99.90;;;;;;5032361;28;20160;-77
2022/05/01 06:13:39;;;;;;;29.20;19.05;;;9.90;99.90;;;;;;5032115;28;20639;-76
2022/05/01 06:16:05;;;;;;;33.53;18.63;;;9.80;99.90;;;;;;5034682;28;20229;-76
2022/05/01 06:18:30;;;;;;;33.25;20.52;;;9.90;99.90;;;;;;5036380;28;20172;-77
2022/05/01 06:20:57;;;;;;;33.80;21.13;;;10.00;99.90;;;;;;5036101;28;20658;-78
2022/05/01 06:23:23;;;;;;;34.88;22.15;;;10.20;99.90;;;;;;5036394;28;20171;-78
2022/05/01 06:25:49;;;;;;;35.75;20.40;;;10.40;99.90;;;;;;5051589;28;20556;-76
2022/05/01 06:28:15;;;;;;;30.67;22.13;;;10.50;99.90;;;;;;5036111;28;20212;-78
2022/05/01 06:30:45;;;;;;;30.10;20.60;;;10.80;99.90;;;;;;5036185;28;20575;-75
2022/05/01 06:33:22;;;;;;;38.28;22.67;;;11.00;99.90;;;;;;5051381;28;20172;-76
2022/05/01 06:35:52;;;;;;;38.92;21.92;;;11.10;99.90;;;;;;5035542;28;20715;-75
2022/05/01 06:38:18;;;;;;;37.83;22.92;;;11.40;99.90;;;;;;5035974;28;20218;-79
2022/05/01 06:40:45;;;;;;;38.47;21.42;;;11.50;99.90;;;;;;5035814;28;20160;-76
2022/05/01 06:43:11;;;;;;;31.13;21.70;;;11.80;99.90;;;;;;5035805;28;20171;-77
2022/05/01 06:45:37;;;;;;;32.70;20.50;;;12.10;99.90;;;;;;5036120;28;20278;-75
2022/05/01 06:48:03;;;;;;;32.03;19.83;;;12.00;99.90;;;;;;5035878;28;20295;-78
2022/05/01 06:50:30;;;;;;;32.45;20.45;;;12.10;99.90;;;;;;5034416;28;20202;-77
2022/05/01 06:52:56;;;;;;;30.00;20.55;;;12.20;99.90;;;;;;5050975;28;20621;-76
2022/05/01 06:55:25;;;;;;;32.45;20.70;;;12.40;99.90;;;;;;5035979;28;20183;-88
2022/05/01 06:57:55;;;;;;;32.60;20.75;;;12.10;99.90;;;;;;5037275;28;20229;-83
2022/05/01 07:00:22;;;;;;;37.95;21.17;;;12.20;99.90;;;;;;5054242;28;20179;-80
2022/05/01 07:02:49;;;;;;;28.73;21.30;;;12.30;99.90;;;;;;5051187;28;20258;-79
2022/05/01 07:05:16;;;;;;;36.35;19.50;;;12.30;99.90;;;;;;5035974;28;20180;-85
2022/05/01 07:07:41;;;;;;;31.52;20.15;;;12.40;99.90;;;;;;5036537;28;20204;-89
2022/05/01 07:10:08;;;;;;;30.90;19.48;;;12.40;99.90;;;;;;5037139;28;20178;-78
2022/05/01 07:12:34;;;;;;;29.88;20.60;;;12.60;99.90;;;;;;5035816;28;20176;-79
2022/05/01 07:15:00;;;;;;;30.85;18.30;;;12.70;99.90;;;;;;5035682;28;20184;-82
2022/05/01 07:17:27;;;;;;;22.70;17.55;;;12.80;99.90;;;;;;5035919;28;20173;-83
2022/05/01 07:19:52;;;;;;;28.27;17.40;;;12.90;99.90;;;;;;5035964;28;20171;-79
2022/05/01 07:22:18;;;;;;;26.33;16.90;;;13.30;99.90;;;;;;5036059;28;20176;-82
2022/05/01 07:24:43;;;;;;;24.00;16.13;;;13.90;99.90;;;;;;5035615;28;20678;-83
2022/05/01 07:27:10;;;;;;;24.08;16.40;;;14.70;99.90;;;;;;5035445;28;20203;-78
2022/05/01 07:29:35;;;;;;;23.15;15.80;;;14.50;99.90;;;;;;5035591;28;20164;-80
2022/05/01 07:32:01;;;;;;;23.75;15.25;;;14.50;99.90;;;;;;5035676;28;20179;-79
2022/05/01 07:34:27;;;;;;;23.80;16.13;;;13.70;99.90;;;;;;5033788;28;20262;-80
2022/05/01 07:36:53;;;;;;;23.75;14.70;;;13.90;99.90;;;;;;5034163;28;20515;-78
2022/05/01 07:39:18;;;;;;;28.52;15.82;;;13.90;99.90;;;;;;5035473;28;20494;-79
2022/05/01 07:41:44;;;;;;;18.25;15.57;;;13.50;99.90;;;;;;5035215;28;20171;-77
2022/05/01 07:44:11;;;;;;;21.92;17.13;;;13.80;99.90;;;;;;5035501;28;20195;-78
2022/05/01 07:46:40;;;;;;;27.08;15.90;;;13.90;99.90;;;;;;5034119;28;20227;-78
2022/05/01 07:49:08;;;;;;;26.40;17.92;;;13.80;99.90;;;;;;5036109;28;20188;-83
2022/05/01 07:51:35;;;;;;;19.35;16.27;;;13.70;99.90;;;;;;5035002;28;20164;-80
2022/05/01 07:54:01;;;;;;;23.70;15.63;;;13.60;99.90;;;;;;5035324;28;20172;-83
2022/05/01 07:56:28;;;;;;;20.40;15.63;;;13.50;99.90;;;;;;5034933;28;20172;-80
2022/05/01 07:58:54;;;;;;;27.73;18.13;;;13.30;99.90;;;;;;5034248;28;20168;-76
2022/05/01 08:01:19;;;;;;;22.27;16.65;;;13.40;99.90;;;;;;5036781;28;20184;-82
2022/05/01 08:06:29;;;;;;;23.77;15.25;;;13.40;99.90;;;;;;5036910;28;20235;-83
2022/05/01 08:08:55;;;;;;;23.55;16.13;;;13.50;99.90;;;;;;5035634;28;20168;-85
2022/05/01 08:11:20;;;;;;;25.23;15.40;;;13.40;99.90;;;;;;5033985;28;20625;-82
2022/05/01 08:13:46;;;;;;;24.15;17.33;;;13.40;99.90;;;;;;5050077;28;20593;-82
2022/05/01 08:16:12;;;;;;;21.48;14.35;;;13.50;99.90;;;;;;5034591;28;20739;-84
2022/05/01 08:21:22;;;;;;;21.73;14.68;;;13.70;99.90;;;;;;5034091;28;20659;-84
2022/05/01 08:23:48;;;;;;;25.67;13.38;;;14.00;99.90;;;;;;5034361;28;20172;-83
2022/05/01 08:26:17;;;;;;;19.90;10.82;;;14.10;99.90;;;;;;5049565;28;20196;-83
2022/05/01 08:28:44;;;;;;;16.13;11.90;;;13.90;99.90;;;;;;5049210;28;20176;-83
2022/05/01 08:31:10;;;;;;;14.15;11.65;;;13.80;99.90;;;;;;5035172;28;20167;-93
2022/05/01 08:33:36;;;;;;;23.25;10.40;;;14.00;99.90;;;;;;5035505;28;20476;-90
2022/05/01 08:36:04;;;;;;;10.73;9.63;;;14.30;99.90;;;;;;5035380;28;20274;-89
2022/05/01 08:38:31;;;;;;;17.95;9.20;;;14.20;99.90;;;;;;5050330;28;20164;-86
2022/05/01 08:40:56;;;;;;;13.27;9.43;;;14.20;99.90;;;;;;5036087;28;20187;-85
2022/05/01 08:43:24;;;;;;;7.43;6.43;;;14.20;99.90;;;;;;5034086;28;20168;-84
2022/05/01 08:46:06;;;;;;;6.78;6.18;;;13.90;99.90;;;;;;5048974;28;20188;-84
2022/05/01 08:48:39;;;;;;;9.20;5.93;;;13.90;99.90;;;;;;5032773;28;20217;-80
2022/05/01 08:51:07;;;;;;;6.75;5.07;;;14.10;99.90;;;;;;5048922;28;20230;-80
2022/05/01 08:53:36;;;;;;;14.88;6.80;;;14.30;99.90;;;;;;5033683;28;20191;-83
2022/05/01 08:56:02;;;;;;;30.55;8.82;;;14.40;99.90;;;;;;5033985;28;20175;-85
2022/05/01 08:58:30;;;;;;;9.35;7.05;;;14.40;99.90;;;;;;5049580;28;20216;-86
2022/05/01 09:00:58;;;;;;;8.20;6.55;;;14.30;99.90;;;;;;5033315;28;20184;-80
2022/05/01 09:03:25;;;;;;;7.15;5.18;;;14.60;99.90;;;;;;5034115;28;20537;-85
2022/05/01 09:05:51;;;;;;;8.57;5.68;;;14.90;99.90;;;;;;5034100;28;20191;-81
2022/05/01 09:08:17;;;;;;;9.60;7.07;;;14.90;99.90;;;;;;5033691;28;20219;-79
2022/05/01 09:10:45;;;;;;;9.90;8.02;;;14.70;99.90;;;;;;5049502;28;20542;-82
2022/05/01 09:13:11;;;;;;;11.32;5.45;;;14.60;99.90;;;;;;5033747;28;20168;-82
2022/05/01 09:15:40;;;;;;;8.18;5.63;;;14.60;99.90;;;;;;5033371;28;20263;-84
2022/05/01 09:18:11;;;;;;;5.47;4.65;;;14.90;99.90;;;;;;5048858;28;20167;-82
2022/05/01 09:20:57;;;;;;;4.88;4.15;;;15.10;99.90;;;;;;5033503;28;20168;-82
2022/05/01 09:23:53;;;;;;;6.20;5.60;;;15.40;99.90;;;;;;5033519;28;20182;-83
2022/05/01 09:26:20;;;;;;;7.78;6.30;;;15.90;99.90;;;;;;5013531;28;20188;-84
2022/05/01 09:28:54;;;;;;;13.50;6.60;;;16.20;99.90;;;;;;5026420;28;20560;-82
2022/05/01 09:31:46;;;;;;;6.43;4.00;;;16.40;99.90;;;;;;5047879;28;20539;-82
2022/05/01 09:34:29;;;;;;;4.55;4.18;;;16.70;99.90;;;;;;5032411;28;20528;-81
2022/05/01 09:36:57;;;;;;;4.85;3.60;;;16.90;99.90;;;;;;5047976;28;20170;-83
2022/05/01 09:39:25;;;;;;;7.70;3.33;;;17.20;99.90;;;;;;5047738;28;20540;-83
2022/05/01 09:41:53;;;;;;;3.80;3.38;;;16.90;99.90;;;;;;5032828;28;20246;-81
2022/05/01 09:44:20;;;;;;;4.07;3.13;;;16.60;99.90;;;;;;5030906;28;20187;-83
2022/05/01 09:46:48;;;;;;;5.18;2.63;;;16.80;99.90;;;;;;5045053;28;20234;-85
2022/05/01 09:49:18;;;;;;;3.45;3.15;;;16.60;99.90;;;;;;5018271;28;20188;-81
2022/05/01 09:51:55;;;;;;;3.38;3.03;;;16.60;99.90;;;;;;5016874;28;20176;-78
2022/05/01 09:54:25;;;;;;;5.00;2.70;;;16.30;99.90;;;;;;5013199;28;20644;-88
2022/05/01 09:56:59;;;;;;;3.35;3.05;;;16.20;99.90;;;;;;5014206;28;20160;-81
2022/05/01 09:59:27;;;;;;;2.78;2.55;;;16.50;99.90;;;;;;5020993;28;20170;-88
2022/05/01 10:02:03;;;;;;;6.95;3.33;;;16.70;99.90;;;;;;5021475;28;20180;-91
2022/05/01 10:04:31;;;;;;;2.95;2.58;;;16.90;99.90;;;;;;5013230;28;20180;-81
2022/05/01 10:06:58;;;;;;;8.23;2.90;;;16.50;99.90;;;;;;5015694;28;20212;-88
2022/05/01 10:09:29;;;;;;;3.20;2.90;;;16.50;99.90;;;;;;5019163;28;20241;-88
2022/05/01 10:11:59;;;;;;;5.45;2.53;;;16.20;99.90;;;;;;5037796;28;20227;-84
2022/05/01 10:14:26;;;;;;;5.78;2.65;;;16.70;99.90;;;;;;5014371;28;20319;-87
2022/05/01 10:16:54;;;;;;;3.88;2.55;;;16.80;99.90;;;;;;5029910;28;20168;-86
2022/05/01 10:19:23;;;;;;;4.90;3.33;;;16.70;99.90;;;;;;5019168;28;20164;-87
2022/05/01 10:21:51;;;;;;;3.28;2.90;;;16.60;99.90;;;;;;5023109;28;20575;-92
2022/05/01 10:24:18;;;;;;;5.80;3.10;;;16.80;99.90;;;;;;5037556;28;20242;-87
2022/05/01 10:26:55;;;;;;;2.92;2.55;;;17.40;99.90;;;;;;5030172;28;20397;-79
2022/05/01 10:32:42;;;;;;;5.07;2.30;;;17.80;99.90;;;;;;5013166;28;20703;-96
2022/05/01 10:35:17;;;;;;;4.18;2.63;;;18.10;99.90;;;;;;5040961;28;20195;-90
2022/05/01 10:38:12;;;;;;;4.03;3.10;;;18.00;98.90;;;;;;5039674;28;20164;-77
2022/05/01 10:40:50;;;;;;;3.78;2.95;;;17.90;99.00;;;;;;5033246;28;20191;-80
2022/05/01 10:43:36;;;;;;;4.32;3.95;;;17.60;99.60;;;;;;5033756;28;20169;-94
2022/05/01 10:46:02;;;;;;;3.97;3.58;;;17.40;99.90;;;;;;5023811;28;20908;-80
2022/05/01 10:48:38;;;;;;;4.70;4.18;;;17.20;99.90;;;;;;5023111;28;20310;-79
2022/05/01 10:51:38;;;;;;;4.82;4.32;;;17.60;99.90;;;;;;5041463;28;20176;-80
2022/05/01 10:54:15;;;;;;;4.47;3.60;;;17.90;99.90;;;;;;5024407;28;20292;-82
2022/05/01 10:56:41;;;;;;;4.95;4.38;;;17.80;99.90;;;;;;5028154;28;20179;-80
2022/05/01 10:59:29;;;;;;;4.40;4.00;;;17.80;99.90;;;;;;5025117;28;20180;-81
2022/05/01 11:02:03;;;;;;;5.60;4.55;;;17.50;99.90;;;;;;5025601;28;20194;-78
2022/05/01 11:04:42;;;;;;;7.15;5.70;;;17.10;99.90;;;;;;5031456;28;20163;-81
2022/05/01 11:07:17;;;;;;;5.05;4.53;;;17.00;99.90;;;;;;5017741;28;20674;-82
2022/05/01 11:09:47;;;;;;;11.05;5.35;;;16.60;99.90;;;;;;5024616;28;20159;-79
2022/05/01 11:12:22;;;;;;;5.30;4.80;;;16.50;99.90;;;;;;5029418;28;20176;-80
2022/05/01 11:14:56;;;;;;;5.32;4.82;;;16.80;99.90;;;;;;5020192;28;20961;-79
2022/05/01 11:17:41;;;;;;;8.80;7.70;;;16.90;99.90;;;;;;5029658;28;20191;-79
2022/05/01 11:20:10;;;;;;;6.00;5.00;;;17.00;99.90;;;;;;5019233;28;20168;-80
2022/05/01 11:22:36;;;;;;;4.80;4.40;;;17.00;99.90;;;;;;5031394;28;20647;-79
2022/05/01 11:25:03;;;;;;;12.40;4.68;;;17.20;99.90;;;;;;5039635;28;20184;-78
2022/05/01 11:27:50;;;;;;;4.93;4.45;;;17.40;99.90;;;;;;5046092;28;20607;-78
2022/05/01 11:30:28;;;;;;;6.65;5.05;;;17.40;99.90;;;;;;5043193;28;20191;-78
2022/05/01 11:33:09;;;;;;;5.03;4.53;;;17.10;99.90;;;;;;5026328;28;20187;-78
2022/05/01 11:35:54;;;;;;;4.60;4.20;;;17.00;99.90;;;;;;5022518;28;20283;-78
2022/05/01 11:38:44;;;;;;;11.77;4.82;;;17.20;99.90;;;;;;5027485;28;20250;-77
2022/05/01 11:41:11;;;;;;;6.20;5.18;;;17.50;99.90;;;;;;5029888;28;20175;-79
2022/05/01 11:43:36;;;;;;;8.07;6.30;;;17.80;99.90;;;;;;5024309;28;20255;-80
2022/05/01 11:46:17;;;;;;;15.30;6.63;;;17.70;99.90;;;;;;5029916;28;20282;-77
2022/05/01 11:48:43;;;;;;;12.05;5.18;;;17.70;99.90;;;;;;5022318;28;20302;-79
2022/05/01 11:51:10;;;;;;;5.30;4.57;;;18.20;99.90;;;;;;5020957;28;20272;-77
2022/05/01 11:53:38;;;;;;;10.55;4.35;;;17.80;99.90;;;;;;5026728;28;20222;-78
2022/05/01 12:04:35;;;;;;;5.25;4.68;;;17.40;99.50;;;;;;5018202;28;20198;-82
2022/05/01 12:07:06;;;;;;;5.68;5.03;;;17.50;99.70;;;;;;5021292;28;20228;-79
2022/05/01 12:09:35;;;;;;;63.40;7.65;;;17.40;99.80;;;;;;5034872;28;20230;-79
2022/05/01 12:12:02;;;;;;;6.28;4.07;;;17.50;99.90;;;;;;5025213;28;20184;-77
2022/05/01 12:14:28;;;;;;;6.95;5.35;;;17.60;99.90;;;;;;5024323;28;20351;-79
2022/05/01 12:16:54;;;;;;;5.97;5.28;;;17.40;99.90;;;;;;5026588;28;20195;-80
2022/05/01 12:19:20;;;;;;;8.02;4.88;;;17.40;99.90;;;;;;5022142;28;20184;-81
2022/05/01 12:21:46;;;;;;;5.63;5.00;;;17.80;99.90;;;;;;5020750;28;20645;-77
2022/05/01 12:24:12;;;;;;;6.20;5.60;;;17.90;99.90;;;;;;5023463;28;20192;-80
2022/05/01 12:26:47;;;;;;;6.78;5.30;;;17.40;99.90;;;;;;5025325;28;20177;-78
2022/05/01 12:29:13;;;;;;;4.85;4.45;;;17.50;99.90;;;;;;5023962;28;20239;-79
2022/05/01 12:32:10;;;;;;;6.50;4.18;;;17.60;99.80;;;;;;5026104;28;20184;-81
2022/05/01 12:34:49;;;;;;;9.00;5.40;;;17.50;99.60;;;;;;5021343;28;20206;-76
2022/05/01 12:37:16;;;;;;;8.38;4.93;;;17.50;99.90;;;;;;5021687;28;20659;-76
2022/05/01 12:39:54;;;;;;;9.07;5.32;;;17.90;99.50;;;;;;5028055;28;20192;-73
2022/05/01 12:45:11;;;;;;;7.85;4.70;;;18.00;99.40;;;;;;5026761;28;20738;-74
2022/05/01 12:47:53;;;;;;;6.63;5.50;;;18.20;99.10;;;;;;5021222;28;20204;-77
2022/05/01 12:50:18;;;;;;;5.38;4.88;;;18.00;98.80;;;;;;5025774;28;20183;-75
2022/05/01 12:52:55;;;;;;;6.75;5.30;;;18.10;99.00;;;;;;5020157;28;20515;-80
2022/05/01 12:55:33;;;;;;;5.55;5.03;;;18.50;99.30;;;;;;5029489;28;20204;-79
2022/05/01 12:58:06;;;;;;;5.45;4.78;;;18.70;98.40;;;;;;5025233;28;20187;-81
2022/05/01 13:00:41;;;;;;;5.38;4.28;;;18.70;98.70;;;;;;5026828;28;20207;-78
2022/05/01 13:03:29;;;;;;;6.13;5.07;;;18.90;97.80;;;;;;5023799;28;20183;-78
2022/05/01 13:06:14;;;;;;;5.05;4.65;;;18.90;97.60;;;;;;5025917;28;20203;-77
2022/05/01 13:09:02;;;;;;;4.28;3.78;;;18.40;97.10;;;;;;5024870;28;20211;-79
2022/05/01 13:11:33;;;;;;;5.63;4.93;;;18.30;97.10;;;;;;5032069;28;20207;-78
2022/05/01 13:14:01;;;;;;;8.70;4.65;;;18.50;96.90;;;;;;5024183;28;20195;-81
2022/05/01 13:16:32;;;;;;;7.18;4.53;;;18.80;96.70;;;;;;5037086;28;20204;-79
2022/05/01 13:18:58;;;;;;;5.95;5.35;;;18.70;97.00;;;;;;5029713;28;20650;-78
2022/05/01 13:21:30;;;;;;;8.63;4.85;;;18.50;97.80;;;;;;5029799;28;20178;-78